sensor_id;sensor_type;location;lat;lon;timestamp;temperature;humidity
50738;DHT22;36703;48.154;17.126;2023-07-16T00:00:50;31.00;47.90
50738;DHT22;36703;48.154;17.126;2023-07-16T00:04:52;31.00;47.90
50738;DHT22;36703;48.154;17.126;2023-07-16T00:08:53;30.90;47.90
50738;DHT22;36703;48.154;17.126;2023-07-16T00:12:55;30.90;47.90
50738;DHT22;36703;48.154;17.126;2023-07-16T00:16:57;30.90;48.00
50738;DHT22;36703;48.154;17.126;2023-07-16T00:20:59;30.90;48.00
50738;DHT22;36703;48.154;17.126;2023-07-16T00:25:01;30.80;48.00
50738;DHT22;36703;48.154;17.126;2023-07-16T00:29:03;30.80;48.10
50738;DHT22;36703;48.154;17.126;2023-07-16T00:33:05;30.80;48.10
50738;DHT22;36703;48.154;17.126;2023-07-16T00:37:06;30.80;48.10
50738;DHT22;36703;48.154;17.126;2023-07-16T00:41:08;30.70;48.10
50738;DHT22;36703;48.154;17.126;2023-07-16T00:45:14;30.70;48.20
50738;DHT22;36703;48.154;17.126;2023-07-16T00:49:15;30.60;48.20
50738;DHT22;36703;48.154;17.126;2023-07-16T00:53:17;30.60;48.30
50738;DHT22;36703;48.154;17.126;2023-07-16T00:57:19;30.60;48.30
50738;DHT22;36703;48.154;17.126;2023-07-16T01:01:21;30.60;48.40
50738;DHT22;36703;48.154;17.126;2023-07-16T01:05:24;30.50;48.40
50738;DHT22;36703;48.154;17.126;2023-07-16T01:09:32;30.50;48.40
50738;DHT22;36703;48.154;17.126;2023-07-16T01:13:35;30.50;48.40
50738;DHT22;36703;48.154;17.126;2023-07-16T01:17:37;30.50;48.40
50738;DHT22;36703;48.154;17.126;2023-07-16T01:22:10;30.50;48.50
50738;DHT22;36703;48.154;17.126;2023-07-16T01:26:52;30.50;48.60
50738;DHT22;36703;48.154;17.126;2023-07-16T01:31:01;30.50;48.60
50738;DHT22;36703;48.154;17.126;2023-07-16T01:35:04;30.40;48.50
50738;DHT22;36703;48.154;17.126;2023-07-16T01:39:07;30.40;48.60
50738;DHT22;36703;48.154;17.126;2023-07-16T01:43:08;30.30;48.60
50738;DHT22;36703;48.154;17.126;2023-07-16T01:51:40;30.30;48.80
50738;DHT22;36703;48.154;17.126;2023-07-16T01:55:42;30.30;48.80
50738;DHT22;36703;48.154;17.126;2023-07-16T01:59:43;30.30;48.80
50738;DHT22;36703;48.154;17.126;2023-07-16T02:03:47;30.30;48.90
50738;DHT22;36703;48.154;17.126;2023-07-16T02:07:49;30.20;48.90
50738;DHT22;36703;48.154;17.126;2023-07-16T02:11:51;30.20;49.00
50738;DHT22;36703;48.154;17.126;2023-07-16T02:15:53;30.20;49.00
50738;DHT22;36703;48.154;17.126;2023-07-16T02:19:54;30.10;49.00
50738;DHT22;36703;48.154;17.126;2023-07-16T02:23:56;30.10;49.00
50738;DHT22;36703;48.154;17.126;2023-07-16T02:28:00;30.10;49.00
50738;DHT22;36703;48.154;17.126;2023-07-16T02:32:05;30.10;49.10
50738;DHT22;36703;48.154;17.126;2023-07-16T02:36:07;30.00;49.00
50738;DHT22;36703;48.154;17.126;2023-07-16T02:40:09;30.00;49.10
50738;DHT22;36703;48.154;17.126;2023-07-16T02:44:11;30.00;49.20
50738;DHT22;36703;48.154;17.126;2023-07-16T02:48:12;30.00;49.20
50738;DHT22;36703;48.154;17.126;2023-07-16T02:52:14;30.00;49.20
50738;DHT22;36703;48.154;17.126;2023-07-16T02:56:15;29.90;49.20
50738;DHT22;36703;48.154;17.126;2023-07-16T03:00:17;29.80;49.20
50738;DHT22;36703;48.154;17.126;2023-07-16T03:04:19;29.60;49.40
50738;DHT22;36703;48.154;17.126;2023-07-16T03:08:21;29.50;49.60
50738;DHT22;36703;48.154;17.126;2023-07-16T03:12:23;29.60;49.50
50738;DHT22;36703;48.154;17.126;2023-07-16T03:16:25;29.70;49.50
50738;DHT22;36703;48.154;17.126;2023-07-16T03:20:27;29.70;49.40
50738;DHT22;36703;48.154;17.126;2023-07-16T03:24:28;29.70;49.30
50738;DHT22;36703;48.154;17.126;2023-07-16T03:28:30;29.70;49.30
50738;DHT22;36703;48.154;17.126;2023-07-16T03:32:32;29.70;49.30
50738;DHT22;36703;48.154;17.126;2023-07-16T03:36:33;29.70;49.30
50738;DHT22;36703;48.154;17.126;2023-07-16T03:40:35;29.70;49.20
50738;DHT22;36703;48.154;17.126;2023-07-16T03:44:37;29.70;49.20
50738;DHT22;36703;48.154;17.126;2023-07-16T03:48:39;29.60;49.20
50738;DHT22;36703;48.154;17.126;2023-07-16T03:52:41;29.70;49.30
50738;DHT22;36703;48.154;17.126;2023-07-16T03:56:42;29.70;49.30
50738;DHT22;36703;48.154;17.126;2023-07-16T04:00:44;29.70;49.30
50738;DHT22;36703;48.154;17.126;2023-07-16T04:04:45;29.70;49.20
50738;DHT22;36703;48.154;17.126;2023-07-16T04:08:47;29.70;49.30
50738;DHT22;36703;48.154;17.126;2023-07-16T04:12:49;29.70;49.30
50738;DHT22;36703;48.154;17.126;2023-07-16T04:16:51;29.70;49.30
50738;DHT22;36703;48.154;17.126;2023-07-16T04:20:52;29.70;49.30
50738;DHT22;36703;48.154;17.126;2023-07-16T04:24:54;29.70;49.40
50738;DHT22;36703;48.154;17.126;2023-07-16T04:28:55;29.70;49.40
50738;DHT22;36703;48.154;17.126;2023-07-16T04:32:57;29.70;49.40
50738;DHT22;36703;48.154;17.126;2023-07-16T04:36:58;29.70;49.40
50738;DHT22;36703;48.154;17.126;2023-07-16T04:41:00;29.70;49.40
50738;DHT22;36703;48.154;17.126;2023-07-16T04:45:02;29.70;49.40
50738;DHT22;36703;48.154;17.126;2023-07-16T04:49:05;29.70;49.40
50738;DHT22;36703;48.154;17.126;2023-07-16T04:53:07;29.70;49.40
50738;DHT22;36703;48.154;17.126;2023-07-16T04:57:09;29.70;49.40
50738;DHT22;36703;48.154;17.126;2023-07-16T05:01:11;29.60;49.40
50738;DHT22;36703;48.154;17.126;2023-07-16T05:05:12;29.60;49.40
50738;DHT22;36703;48.154;17.126;2023-07-16T05:09:14;29.60;49.50
50738;DHT22;36703;48.154;17.126;2023-07-16T05:13:15;29.60;49.50
50738;DHT22;36703;48.154;17.126;2023-07-16T05:17:17;29.60;49.50
50738;DHT22;36703;48.154;17.126;2023-07-16T05:21:18;29.60;49.50
50738;DHT22;36703;48.154;17.126;2023-07-16T05:25:20;29.70;49.50
50738;DHT22;36703;48.154;17.126;2023-07-16T05:29:22;29.70;49.40
50738;DHT22;36703;48.154;17.126;2023-07-16T05:33:23;29.70;49.40
50738;DHT22;36703;48.154;17.126;2023-07-16T05:37:26;29.70;49.40
50738;DHT22;36703;48.154;17.126;2023-07-16T05:41:27;29.80;49.40
50738;DHT22;36703;48.154;17.126;2023-07-16T05:45:29;29.80;49.40
50738;DHT22;36703;48.154;17.126;2023-07-16T05:49:31;29.90;49.40
50738;DHT22;36703;48.154;17.126;2023-07-16T05:53:32;29.80;49.40
50738;DHT22;36703;48.154;17.126;2023-07-16T05:57:34;29.90;49.60
50738;DHT22;36703;48.154;17.126;2023-07-16T06:01:36;29.90;49.50
50738;DHT22;36703;48.154;17.126;2023-07-16T06:05:37;29.90;49.50
50738;DHT22;36703;48.154;17.126;2023-07-16T06:09:39;29.70;49.60
50738;DHT22;36703;48.154;17.126;2023-07-16T06:13:40;29.70;49.80
50738;DHT22;36703;48.154;17.126;2023-07-16T06:17:42;29.80;49.90
50738;DHT22;36703;48.154;17.126;2023-07-16T06:21:43;29.80;49.90
50738;DHT22;36703;48.154;17.126;2023-07-16T06:25:45;29.80;49.90
50738;DHT22;36703;48.154;17.126;2023-07-16T06:29:49;29.90;49.90
50738;DHT22;36703;48.154;17.126;2023-07-16T06:33:50;29.80;49.90
50738;DHT22;36703;48.154;17.126;2023-07-16T06:37:52;29.80;50.00
50738;DHT22;36703;48.154;17.126;2023-07-16T06:41:53;29.70;50.10
50738;DHT22;36703;48.154;17.126;2023-07-16T06:45:56;29.60;50.30
50738;DHT22;36703;48.154;17.126;2023-07-16T06:49:57;29.60;50.50
50738;DHT22;36703;48.154;17.126;2023-07-16T06:53:59;29.60;50.60
50738;DHT22;36703;48.154;17.126;2023-07-16T06:58:01;29.60;50.60
50738;DHT22;36703;48.154;17.126;2023-07-16T07:02:03;29.70;50.70
50738;DHT22;36703;48.154;17.126;2023-07-16T07:06:05;29.80;50.70
50738;DHT22;36703;48.154;17.126;2023-07-16T07:10:07;29.90;50.60
50738;DHT22;36703;48.154;17.126;2023-07-16T07:14:08;29.90;50.50
50738;DHT22;36703;48.154;17.126;2023-07-16T07:18:10;30.00;50.50
50738;DHT22;36703;48.154;17.126;2023-07-16T07:22:12;30.10;50.40
50738;DHT22;36703;48.154;17.126;2023-07-16T07:26:13;30.20;50.40
50738;DHT22;36703;48.154;17.126;2023-07-16T07:30:15;30.20;50.30
50738;DHT22;36703;48.154;17.126;2023-07-16T07:34:16;30.30;50.20
50738;DHT22;36703;48.154;17.126;2023-07-16T07:38:18;30.30;50.10
50738;DHT22;36703;48.154;17.126;2023-07-16T07:42:19;30.40;50.10
50738;DHT22;36703;48.154;17.126;2023-07-16T07:46:21;30.40;50.10
50738;DHT22;36703;48.154;17.126;2023-07-16T07:50:23;30.50;50.10
50738;DHT22;36703;48.154;17.126;2023-07-16T07:54:25;30.60;50.10
50738;DHT22;36703;48.154;17.126;2023-07-16T07:58:26;30.60;50.00
50738;DHT22;36703;48.154;17.126;2023-07-16T08:02:28;30.60;50.00
50738;DHT22;36703;48.154;17.126;2023-07-16T08:06:29;30.70;50.00
50738;DHT22;36703;48.154;17.126;2023-07-16T08:10:31;30.70;50.00
50738;DHT22;36703;48.154;17.126;2023-07-16T08:14:32;30.80;49.90
50738;DHT22;36703;48.154;17.126;2023-07-16T08:18:34;30.90;49.90
50738;DHT22;36703;48.154;17.126;2023-07-16T08:22:36;30.90;49.70
50738;DHT22;36703;48.154;17.126;2023-07-16T08:26:39;31.00;49.70
50738;DHT22;36703;48.154;17.126;2023-07-16T08:30:40;31.00;49.60
50738;DHT22;36703;48.154;17.126;2023-07-16T08:34:42;31.00;49.50
50738;DHT22;36703;48.154;17.126;2023-07-16T08:38:43;31.10;49.40
50738;DHT22;36703;48.154;17.126;2023-07-16T08:42:45;31.10;49.30
50738;DHT22;36703;48.154;17.126;2023-07-16T08:46:50;31.20;49.30
50738;DHT22;36703;48.154;17.126;2023-07-16T08:50:52;31.20;49.20
50738;DHT22;36703;48.154;17.126;2023-07-16T08:54:54;31.20;49.00
50738;DHT22;36703;48.154;17.126;2023-07-16T08:58:57;31.20;48.90
50738;DHT22;36703;48.154;17.126;2023-07-16T09:02:59;31.30;48.90
50738;DHT22;36703;48.154;17.126;2023-07-16T09:07:01;31.30;49.40
50738;DHT22;36703;48.154;17.126;2023-07-16T09:11:02;31.40;48.70
50738;DHT22;36703;48.154;17.126;2023-07-16T09:15:04;31.50;48.70
50738;DHT22;36703;48.154;17.126;2023-07-16T09:19:09;31.50;48.60
50738;DHT22;36703;48.154;17.126;2023-07-16T09:23:12;31.50;48.50
50738;DHT22;36703;48.154;17.126;2023-07-16T09:27:14;31.50;48.40
50738;DHT22;36703;48.154;17.126;2023-07-16T09:31:15;31.50;48.30
50738;DHT22;36703;48.154;17.126;2023-07-16T09:35:17;31.60;48.30
50738;DHT22;36703;48.154;17.126;2023-07-16T09:39:19;31.60;48.20
50738;DHT22;36703;48.154;17.126;2023-07-16T09:43:20;31.70;48.10
50738;DHT22;36703;48.154;17.126;2023-07-16T09:47:23;31.70;47.90
50738;DHT22;36703;48.154;17.126;2023-07-16T09:51:25;31.90;47.80
50738;DHT22;36703;48.154;17.126;2023-07-16T09:55:27;32.00;47.50
50738;DHT22;36703;48.154;17.126;2023-07-16T09:59:31;32.10;47.30
50738;DHT22;36703;48.154;17.126;2023-07-16T10:03:34;32.20;47.10
50738;DHT22;36703;48.154;17.126;2023-07-16T10:07:37;32.40;46.90
50738;DHT22;36703;48.154;17.126;2023-07-16T10:11:38;32.60;46.50
50738;DHT22;36703;48.154;17.126;2023-07-16T10:15:56;32.70;46.20
50738;DHT22;36703;48.154;17.126;2023-07-16T10:20:00;32.80;45.80
50738;DHT22;36703;48.154;17.126;2023-07-16T10:24:16;32.90;46.20
50738;DHT22;36703;48.154;17.126;2023-07-16T10:28:20;33.10;45.30
50738;DHT22;36703;48.154;17.126;2023-07-16T10:32:22;33.30;45.30
50738;DHT22;36703;48.154;17.126;2023-07-16T10:36:28;33.40;45.10
50738;DHT22;36703;48.154;17.126;2023-07-16T10:40:30;33.60;44.90
50738;DHT22;36703;48.154;17.126;2023-07-16T10:44:31;33.70;44.50
50738;DHT22;36703;48.154;17.126;2023-07-16T10:48:33;33.80;44.20
50738;DHT22;36703;48.154;17.126;2023-07-16T10:52:35;34.00;44.00
50738;DHT22;36703;48.154;17.126;2023-07-16T10:56:37;34.00;43.60
50738;DHT22;36703;48.154;17.126;2023-07-16T11:00:39;34.10;43.40
50738;DHT22;36703;48.154;17.126;2023-07-16T11:04:41;34.10;43.00
50738;DHT22;36703;48.154;17.126;2023-07-16T11:08:43;34.20;42.70
50738;DHT22;36703;48.154;17.126;2023-07-16T11:12:50;34.30;42.40
50738;DHT22;36703;48.154;17.126;2023-07-16T11:17:04;34.30;42.00
50738;DHT22;36703;48.154;17.126;2023-07-16T11:21:12;34.40;41.80
50738;DHT22;36703;48.154;17.126;2023-07-16T11:25:13;34.40;41.60
50738;DHT22;36703;48.154;17.126;2023-07-16T11:29:15;34.50;41.60
50738;DHT22;36703;48.154;17.126;2023-07-16T11:33:17;34.50;41.50
50738;DHT22;36703;48.154;17.126;2023-07-16T11:37:19;34.60;41.40
50738;DHT22;36703;48.154;17.126;2023-07-16T11:41:22;34.60;41.20
50738;DHT22;36703;48.154;17.126;2023-07-16T11:45:26;34.60;40.90
50738;DHT22;36703;48.154;17.126;2023-07-16T11:49:27;34.70;40.70
50738;DHT22;36703;48.154;17.126;2023-07-16T11:53:29;34.80;40.50
50738;DHT22;36703;48.154;17.126;2023-07-16T11:57:34;34.80;40.30
50738;DHT22;36703;48.154;17.126;2023-07-16T12:01:36;34.80;40.00
50738;DHT22;36703;48.154;17.126;2023-07-16T12:05:37;34.90;40.00
50738;DHT22;36703;48.154;17.126;2023-07-16T12:09:39;35.00;39.80
50738;DHT22;36703;48.154;17.126;2023-07-16T12:13:41;35.10;39.60
50738;DHT22;36703;48.154;17.126;2023-07-16T12:17:42;35.00;39.40
50738;DHT22;36703;48.154;17.126;2023-07-16T12:21:44;35.10;39.30
50738;DHT22;36703;48.154;17.126;2023-07-16T12:25:46;35.10;39.20
50738;DHT22;36703;48.154;17.126;2023-07-16T12:29:47;35.10;39.30
50738;DHT22;36703;48.154;17.126;2023-07-16T12:33:49;35.10;39.80
50738;DHT22;36703;48.154;17.126;2023-07-16T12:37:51;35.00;40.00
50738;DHT22;36703;48.154;17.126;2023-07-16T12:41:52;35.00;39.90
50738;DHT22;36703;48.154;17.126;2023-07-16T12:45:54;35.10;39.70
50738;DHT22;36703;48.154;17.126;2023-07-16T12:49:55;35.20;39.50
50738;DHT22;36703;48.154;17.126;2023-07-16T12:53:57;35.20;39.20
50738;DHT22;36703;48.154;17.126;2023-07-16T12:57:58;35.30;39.10
50738;DHT22;36703;48.154;17.126;2023-07-16T13:02:00;35.30;38.80
50738;DHT22;36703;48.154;17.126;2023-07-16T13:06:02;35.40;38.70
50738;DHT22;36703;48.154;17.126;2023-07-16T13:10:05;35.50;38.60
50738;DHT22;36703;48.154;17.126;2023-07-16T13:14:07;35.50;38.30
50738;DHT22;36703;48.154;17.126;2023-07-16T13:18:12;35.50;38.30
50738;DHT22;36703;48.154;17.126;2023-07-16T13:22:13;35.60;38.40
50738;DHT22;36703;48.154;17.126;2023-07-16T13:26:15;35.60;38.30
50738;DHT22;36703;48.154;17.126;2023-07-16T13:30:17;35.60;38.20
50738;DHT22;36703;48.154;17.126;2023-07-16T13:34:18;35.60;38.00
50738;DHT22;36703;48.154;17.126;2023-07-16T13:38:20;35.60;37.90
50738;DHT22;36703;48.154;17.126;2023-07-16T13:42:22;35.60;37.90
50738;DHT22;36703;48.154;17.126;2023-07-16T13:46:23;35.60;38.00
50738;DHT22;36703;48.154;17.126;2023-07-16T13:50:25;35.60;37.90
50738;DHT22;36703;48.154;17.126;2023-07-16T13:54:26;35.60;37.70
50738;DHT22;36703;48.154;17.126;2023-07-16T13:58:28;35.60;37.40
50738;DHT22;36703;48.154;17.126;2023-07-16T14:02:29;35.70;37.20
50738;DHT22;36703;48.154;17.126;2023-07-16T14:06:31;35.70;37.00
50738;DHT22;36703;48.154;17.126;2023-07-16T14:10:33;35.70;37.00
50738;DHT22;36703;48.154;17.126;2023-07-16T14:14:35;35.60;36.80
50738;DHT22;36703;48.154;17.126;2023-07-16T14:18:36;35.60;36.70
50738;DHT22;36703;48.154;17.126;2023-07-16T14:22:38;35.60;36.80
50738;DHT22;36703;48.154;17.126;2023-07-16T14:26:39;35.60;37.00
50738;DHT22;36703;48.154;17.126;2023-07-16T14:30:41;35.60;37.20
50738;DHT22;36703;48.154;17.126;2023-07-16T14:34:43;35.60;37.30
50738;DHT22;36703;48.154;17.126;2023-07-16T14:38:44;35.70;37.50
50738;DHT22;36703;48.154;17.126;2023-07-16T14:42:46;35.70;37.50
50738;DHT22;36703;48.154;17.126;2023-07-16T14:46:48;35.70;37.50
50738;DHT22;36703;48.154;17.126;2023-07-16T14:50:50;35.70;37.30
50738;DHT22;36703;48.154;17.126;2023-07-16T14:54:52;35.70;37.80
50738;DHT22;36703;48.154;17.126;2023-07-16T14:58:53;35.70;37.00
50738;DHT22;36703;48.154;17.126;2023-07-16T15:02:55;35.70;36.80
50738;DHT22;36703;48.154;17.126;2023-07-16T15:06:56;35.70;36.60
50738;DHT22;36703;48.154;17.126;2023-07-16T15:10:59;35.80;36.30
50738;DHT22;36703;48.154;17.126;2023-07-16T15:15:00;35.70;35.90
50738;DHT22;36703;48.154;17.126;2023-07-16T15:19:02;35.70;35.80
50738;DHT22;36703;48.154;17.126;2023-07-16T15:23:03;35.70;35.90
50738;DHT22;36703;48.154;17.126;2023-07-16T15:27:06;35.60;35.80
50738;DHT22;36703;48.154;17.126;2023-07-16T15:31:07;35.60;35.90
50738;DHT22;36703;48.154;17.126;2023-07-16T15:35:09;35.60;35.90
50738;DHT22;36703;48.154;17.126;2023-07-16T15:39:10;35.60;35.80
50738;DHT22;36703;48.154;17.126;2023-07-16T15:43:12;35.60;35.80
50738;DHT22;36703;48.154;17.126;2023-07-16T15:47:14;35.60;35.90
50738;DHT22;36703;48.154;17.126;2023-07-16T15:51:16;35.60;36.10
50738;DHT22;36703;48.154;17.126;2023-07-16T15:55:17;35.60;36.30
50738;DHT22;36703;48.154;17.126;2023-07-16T15:59:19;35.60;36.50
50738;DHT22;36703;48.154;17.126;2023-07-16T16:03:20;35.60;36.70
50738;DHT22;36703;48.154;17.126;2023-07-16T16:07:22;35.60;36.80
50738;DHT22;36703;48.154;17.126;2023-07-16T16:11:24;35.50;36.80
50738;DHT22;36703;48.154;17.126;2023-07-16T16:15:25;35.50;36.80
50738;DHT22;36703;48.154;17.126;2023-07-16T16:19:28;35.50;36.80
50738;DHT22;36703;48.154;17.126;2023-07-16T16:23:29;35.50;36.70
50738;DHT22;36703;48.154;17.126;2023-07-16T16:27:31;35.50;37.30
50738;DHT22;36703;48.154;17.126;2023-07-16T16:31:32;35.50;36.50
50738;DHT22;36703;48.154;17.126;2023-07-16T16:35:39;35.50;36.20
50738;DHT22;36703;48.154;17.126;2023-07-16T16:39:43;35.50;36.10
50738;DHT22;36703;48.154;17.126;2023-07-16T16:43:44;35.50;36.00
50738;DHT22;36703;48.154;17.126;2023-07-16T16:47:46;35.50;35.90
50738;DHT22;36703;48.154;17.126;2023-07-16T16:51:48;35.50;35.80
50738;DHT22;36703;48.154;17.126;2023-07-16T16:55:49;35.40;35.60
50738;DHT22;36703;48.154;17.126;2023-07-16T16:59:51;35.40;35.40
50738;DHT22;36703;48.154;17.126;2023-07-16T17:03:53;35.40;35.40
50738;DHT22;36703;48.154;17.126;2023-07-16T17:07:57;35.40;35.50
50738;DHT22;36703;48.154;17.126;2023-07-16T17:12:00;35.40;35.40
50738;DHT22;36703;48.154;17.126;2023-07-16T17:16:01;35.40;35.40
50738;DHT22;36703;48.154;17.126;2023-07-16T17:20:03;35.40;35.30
50738;DHT22;36703;48.154;17.126;2023-07-16T17:24:10;35.40;35.30
50738;DHT22;36703;48.154;17.126;2023-07-16T17:28:12;35.30;35.30
50738;DHT22;36703;48.154;17.126;2023-07-16T17:32:14;35.30;35.50
50738;DHT22;36703;48.154;17.126;2023-07-16T17:36:15;35.30;35.60
50738;DHT22;36703;48.154;17.126;2023-07-16T17:40:17;35.30;35.80
50738;DHT22;36703;48.154;17.126;2023-07-16T17:44:20;35.30;36.00
50738;DHT22;36703;48.154;17.126;2023-07-16T17:48:23;35.20;35.90
50738;DHT22;36703;48.154;17.126;2023-07-16T17:52:24;35.20;35.90
50738;DHT22;36703;48.154;17.126;2023-07-16T17:56:26;35.20;35.90
50738;DHT22;36703;48.154;17.126;2023-07-16T18:00:27;35.20;35.90
50738;DHT22;36703;48.154;17.126;2023-07-16T18:04:29;35.10;35.90
50738;DHT22;36703;48.154;17.126;2023-07-16T18:08:30;35.10;35.90
50738;DHT22;36703;48.154;17.126;2023-07-16T18:12:32;35.10;35.90
50738;DHT22;36703;48.154;17.126;2023-07-16T18:16:34;35.10;36.10
50738;DHT22;36703;48.154;17.126;2023-07-16T18:20:38;35.10;36.20
50738;DHT22;36703;48.154;17.126;2023-07-16T18:24:39;35.00;36.40
50738;DHT22;36703;48.154;17.126;2023-07-16T18:28:41;35.10;37.00
50738;DHT22;36703;48.154;17.126;2023-07-16T18:32:43;34.90;37.70
50738;DHT22;36703;48.154;17.126;2023-07-16T18:36:46;34.90;38.10
50738;DHT22;36703;48.154;17.126;2023-07-16T18:40:47;34.80;38.40
50738;DHT22;36703;48.154;17.126;2023-07-16T18:44:49;34.80;38.60
50738;DHT22;36703;48.154;17.126;2023-07-16T18:48:54;34.80;38.50
50738;DHT22;36703;48.154;17.126;2023-07-16T18:52:56;34.70;38.90
50738;DHT22;36703;48.154;17.126;2023-07-16T18:56:59;34.70;39.00
50738;DHT22;36703;48.154;17.126;2023-07-16T19:01:01;34.70;39.70
50738;DHT22;36703;48.154;17.126;2023-07-16T19:05:03;34.60;40.60
50738;DHT22;36703;48.154;17.126;2023-07-16T19:09:05;34.50;41.00
50738;DHT22;36703;48.154;17.126;2023-07-16T19:13:07;34.40;41.20
50738;DHT22;36703;48.154;17.126;2023-07-16T19:17:17;34.40;41.50
50738;DHT22;36703;48.154;17.126;2023-07-16T19:21:19;34.30;41.40
50738;DHT22;36703;48.154;17.126;2023-07-16T19:25:20;34.30;41.20
50738;DHT22;36703;48.154;17.126;2023-07-16T19:29:25;34.40;41.50
50738;DHT22;36703;48.154;17.126;2023-07-16T19:33:26;34.30;41.90
50738;DHT22;36703;48.154;17.126;2023-07-16T19:37:29;34.30;42.10
50738;DHT22;36703;48.154;17.126;2023-07-16T19:41:32;34.30;42.00
50738;DHT22;36703;48.154;17.126;2023-07-16T19:45:34;34.30;42.00
50738;DHT22;36703;48.154;17.126;2023-07-16T19:49:35;34.20;42.00
50738;DHT22;36703;48.154;17.126;2023-07-16T19:53:37;34.20;42.90
50738;DHT22;36703;48.154;17.126;2023-07-16T19:57:38;34.10;42.40
50738;DHT22;36703;48.154;17.126;2023-07-16T20:01:40;34.10;42.80
50738;DHT22;36703;48.154;17.126;2023-07-16T20:05:41;34.00;43.80
50738;DHT22;36703;48.154;17.126;2023-07-16T20:09:44;34.00;43.40
50738;DHT22;36703;48.154;17.126;2023-07-16T20:13:51;34.00;43.40
50738;DHT22;36703;48.154;17.126;2023-07-16T20:17:52;34.00;43.50
50738;DHT22;36703;48.154;17.126;2023-07-16T20:21:54;33.90;43.50
50738;DHT22;36703;48.154;17.126;2023-07-16T20:25:56;33.90;43.50
50738;DHT22;36703;48.154;17.126;2023-07-16T20:29:57;33.80;43.70
50738;DHT22;36703;48.154;17.126;2023-07-16T20:33:59;33.80;43.90
50738;DHT22;36703;48.154;17.126;2023-07-16T20:38:00;33.80;43.80
50738;DHT22;36703;48.154;17.126;2023-07-16T20:42:02;33.70;43.60
50738;DHT22;36703;48.154;17.126;2023-07-16T20:46:04;33.70;43.30
50738;DHT22;36703;48.154;17.126;2023-07-16T20:50:05;33.70;43.10
50738;DHT22;36703;48.154;17.126;2023-07-16T20:54:07;33.60;43.00
50738;DHT22;36703;48.154;17.126;2023-07-16T20:58:11;33.60;42.90
50738;DHT22;36703;48.154;17.126;2023-07-16T21:02:12;33.50;42.80
50738;DHT22;36703;48.154;17.126;2023-07-16T21:06:14;33.40;42.60
50738;DHT22;36703;48.154;17.126;2023-07-16T21:10:16;33.40;42.60
50738;DHT22;36703;48.154;17.126;2023-07-16T21:14:23;33.40;42.80
50738;DHT22;36703;48.154;17.126;2023-07-16T21:18:25;33.40;42.90
50738;DHT22;36703;48.154;17.126;2023-07-16T21:22:27;33.30;43.00
50738;DHT22;36703;48.154;17.126;2023-07-16T21:26:29;33.30;43.10
50738;DHT22;36703;48.154;17.126;2023-07-16T21:30:31;33.30;43.20
50738;DHT22;36703;48.154;17.126;2023-07-16T21:34:33;33.30;43.20
50738;DHT22;36703;48.154;17.126;2023-07-16T21:38:34;33.20;43.90
50738;DHT22;36703;48.154;17.126;2023-07-16T21:42:36;33.20;43.50
50738;DHT22;36703;48.154;17.126;2023-07-16T21:46:38;33.20;43.60
50738;DHT22;36703;48.154;17.126;2023-07-16T21:50:39;33.20;43.70
50738;DHT22;36703;48.154;17.126;2023-07-16T21:54:43;33.20;43.70
50738;DHT22;36703;48.154;17.126;2023-07-16T21:58:44;33.10;43.60
50738;DHT22;36703;48.154;17.126;2023-07-16T22:02:46;33.10;43.60
50738;DHT22;36703;48.154;17.126;2023-07-16T22:06:48;33.10;43.60
50738;DHT22;36703;48.154;17.126;2023-07-16T22:10:51;33.00;43.60
50738;DHT22;36703;48.154;17.126;2023-07-16T22:14:53;33.00;44.20
50738;DHT22;36703;48.154;17.126;2023-07-16T22:18:54;33.00;43.60
50738;DHT22;36703;48.154;17.126;2023-07-16T22:22:56;32.90;44.00
50738;DHT22;36703;48.154;17.126;2023-07-16T22:26:57;32.90;44.40
50738;DHT22;36703;48.154;17.126;2023-07-16T22:30:59;32.90;44.50
50738;DHT22;36703;48.154;17.126;2023-07-16T22:35:00;32.80;44.50
50738;DHT22;36703;48.154;17.126;2023-07-16T22:39:02;32.80;44.60
50738;DHT22;36703;48.154;17.126;2023-07-16T22:43:04;32.80;44.80
50738;DHT22;36703;48.154;17.126;2023-07-16T22:47:06;32.80;44.80
50738;DHT22;36703;48.154;17.126;2023-07-16T22:51:07;32.80;44.80
50738;DHT22;36703;48.154;17.126;2023-07-16T22:55:09;32.70;44.80
50738;DHT22;36703;48.154;17.126;2023-07-16T22:59:11;32.70;44.90
50738;DHT22;36703;48.154;17.126;2023-07-16T23:03:12;32.70;45.00
50738;DHT22;36703;48.154;17.126;2023-07-16T23:07:14;32.70;45.20
50738;DHT22;36703;48.154;17.126;2023-07-16T23:11:16;32.60;45.30
50738;DHT22;36703;48.154;17.126;2023-07-16T23:15:18;32.50;45.50
50738;DHT22;36703;48.154;17.126;2023-07-16T23:19:22;32.50;45.70
50738;DHT22;36703;48.154;17.126;2023-07-16T23:23:23;32.50;45.70
50738;DHT22;36703;48.154;17.126;2023-07-16T23:27:25;32.50;45.80
50738;DHT22;36703;48.154;17.126;2023-07-16T23:31:26;32.50;45.80
50738;DHT22;36703;48.154;17.126;2023-07-16T23:35:28;32.40;45.80
50738;DHT22;36703;48.154;17.126;2023-07-16T23:39:30;32.40;46.10
50738;DHT22;36703;48.154;17.126;2023-07-16T23:43:32;32.40;46.10
50738;DHT22;36703;48.154;17.126;2023-07-16T23:47:34;32.40;46.00
50738;DHT22;36703;48.154;17.126;2023-07-16T23:51:35;32.30;46.10
50738;DHT22;36703;48.154;17.126;2023-07-16T23:55:37;32.30;46.10
50738;DHT22;36703;48.154;17.126;2023-07-16T23:59:38;32.30;46.20
